Time;durP1;ratioP1;P1;durP2;ratioP2;P2;SDS_P1;SDS_P2;PMS_P1;PMS_P2;Temp;Humidity;BMP_temperature;BMP_pressure;BME280_temperature;BME280_humidity;BME280_pressure;Samples;Min_cycle;Max_cycle;Signal;HPM_P1;HPM_P2
2021/01/10 00:00:15;;;;;;;15.18;3.72;;;;;;;;;;5075300;28;20037;-63
2021/01/10 00:02:45;;;;;;;8.70;3.53;;;;;;;;;;5075368;28;20493;-62
2021/01/10 00:05:17;;;;;;;13.10;3.58;;;;;;;;;;5075278;28;20040;-63
2021/01/10 00:07:43;;;;;;;14.60;4.10;;;;;;;;;;5075083;28;20125;-62
2021/01/10 00:10:09;;;;;;;12.65;4.75;;;;;;;;;;5074729;28;20406;-62
2021/01/10 00:12:36;;;;;;;12.52;3.70;;;;;;;;;;5074944;28;20052;-62
2021/01/10 00:15:02;;;;;;;15.98;4.32;;;;;;;;;;5074454;28;20097;-63
2021/01/10 00:17:28;;;;;;;13.80;4.13;;;;;;;;;;5074395;28;20040;-63
2021/01/10 00:19:54;;;;;;;17.40;4.40;;;;;;;;;;5074673;28;20139;-63
2021/01/10 00:22:22;;;;;;;11.60;5.47;;;;;;;;;;5074658;28;20051;-63
2021/01/10 00:24:48;;;;;;;14.75;4.90;;;;;;;;;;5080580;22;20041;-66
2021/01/10 00:27:14;;;;;;;13.73;4.03;;;;;;;;;;5034550;28;20502;-65
2021/01/10 00:29:42;;;;;;;10.82;3.67;;;;;;;;;;5034565;28;20037;-65
2021/01/10 00:32:08;;;;;;;9.70;3.90;;;;;;;;;;5034932;28;20041;-65
2021/01/10 00:34:34;;;;;;;11.15;4.45;;;;;;;;;;5050925;28;20121;-66
2021/01/10 00:37:00;;;;;;;14.38;5.00;;;;;;;;;;5054451;28;20159;-65
2021/01/10 00:39:26;;;;;;;13.93;5.35;;;;;;;;;;5054697;28;20041;-65
2021/01/10 00:41:53;;;;;;;9.82;4.90;;;;;;;;;;5053691;28;20384;-65
2021/01/10 00:44:19;;;;;;;16.80;4.50;;;;;;;;;;5054482;28;20502;-65
2021/01/10 00:46:45;;;;;;;8.90;4.75;;;;;;;;;;5053035;28;20037;-65
2021/01/10 00:49:11;;;;;;;14.82;5.00;;;;;;;;;;5054648;28;20066;-65
2021/01/10 00:51:37;;;;;;;19.88;4.85;;;;;;;;;;5041132;28;20103;-65
2021/01/10 00:54:03;;;;;;;19.08;5.13;;;;;;;;;;5033926;28;20038;-65
2021/01/10 00:56:29;;;;;;;13.98;4.80;;;;;;;;;;5034032;28;20061;-65
2021/01/10 00:58:55;;;;;;;18.05;5.38;;;;;;;;;;5034393;28;20042;-65
2021/01/10 01:01:21;;;;;;;13.45;4.22;;;;;;;;;;5042427;28;20041;-65
2021/01/10 01:03:48;;;;;;;8.18;4.38;;;;;;;;;;5054202;28;20048;-65
2021/01/10 01:06:14;;;;;;;14.75;4.95;;;;;;;;;;5053912;28;20041;-66
2021/01/10 01:08:42;;;;;;;14.98;5.28;;;;;;;;;;5054103;28;20111;-66
2021/01/10 01:11:08;;;;;;;22.05;7.05;;;;;;;;;;5050430;28;20037;-65
2021/01/10 01:13:34;;;;;;;15.30;4.90;;;;;;;;;;5053939;28;20045;-66
2021/01/10 01:16:00;;;;;;;13.82;6.32;;;;;;;;;;5053739;28;20376;-65
2021/01/10 01:18:26;;;;;;;12.02;5.85;;;;;;;;;;5054100;28;20037;-65
2021/01/10 01:20:52;;;;;;;14.57;5.88;;;;;;;;;;5053757;28;20128;-65
2021/01/10 01:23:18;;;;;;;14.95;5.35;;;;;;;;;;5034662;28;20049;-65
2021/01/10 01:25:45;;;;;;;11.93;4.45;;;;;;;;;;5033746;28;20041;-65
2021/01/10 01:28:11;;;;;;;10.65;5.00;;;;;;;;;;5033762;28;20045;-65
2021/01/10 01:30:37;;;;;;;17.10;6.95;;;;;;;;;;5033761;28;20042;-66
2021/01/10 01:33:03;;;;;;;15.15;6.63;;;;;;;;;;5034616;28;20072;-65
2021/01/10 01:35:30;;;;;;;11.02;4.57;;;;;;;;;;5033716;28;20049;-66
2021/01/10 01:37:57;;;;;;;10.45;4.57;;;;;;;;;;5033468;28;20041;-65
2021/01/10 01:40:23;;;;;;;12.98;5.78;;;;;;;;;;5033432;28;20045;-66
2021/01/10 01:42:49;;;;;;;19.13;8.25;;;;;;;;;;5035897;28;20041;-67
2021/01/10 01:45:15;;;;;;;11.20;4.93;;;;;;;;;;5034213;28;20052;-66
2021/01/10 01:47:41;;;;;;;12.40;5.10;;;;;;;;;;5033329;28;20065;-66
2021/01/10 01:50:08;;;;;;;18.70;6.43;;;;;;;;;;5032370;28;20072;-67
2021/01/10 01:52:34;;;;;;;17.05;6.05;;;;;;;;;;5037114;28;20048;-66
2021/01/10 01:55:00;;;;;;;17.45;6.40;;;;;;;;;;5053180;28;20048;-66
2021/01/10 01:57:27;;;;;;;12.85;6.00;;;;;;;;;;5053615;28;20400;-66
2021/01/10 01:59:53;;;;;;;22.70;8.93;;;;;;;;;;5053927;28;20063;-66
2021/01/10 02:02:19;;;;;;;15.88;6.97;;;;;;;;;;5054112;28;20534;-66
2021/01/10 02:04:45;;;;;;;13.52;6.60;;;;;;;;;;5034894;28;20407;-66
2021/01/10 02:07:16;;;;;;;21.05;9.05;;;;;;;;;;5034419;28;20044;-66
2021/01/10 02:09:43;;;;;;;19.90;9.00;;;;;;;;;;5034415;28;20045;-66
2021/01/10 02:12:10;;;;;;;16.38;8.20;;;;;;;;;;5034412;28;20467;-66
2021/01/10 02:14:40;;;;;;;25.95;9.38;;;;;;;;;;5049940;28;20121;-65
2021/01/10 02:17:06;;;;;;;11.75;5.85;;;;;;;;;;5054969;28;20040;-66
2021/01/10 02:19:36;;;;;;;11.38;4.88;;;;;;;;;;5055121;28;20066;-66
2021/01/10 02:22:05;;;;;;;23.73;6.85;;;;;;;;;;5053000;28;20045;-66
2021/01/10 02:24:34;;;;;;;20.48;6.65;;;;;;;;;;5041396;28;20136;-66
2021/01/10 02:27:02;;;;;;;17.48;6.25;;;;;;;;;;5034309;28;20041;-66
2021/01/10 02:29:28;;;;;;;16.48;6.45;;;;;;;;;;5033420;28;20104;-66
2021/01/10 02:31:54;;;;;;;14.77;6.80;;;;;;;;;;5034307;28;20045;-66
2021/01/10 02:34:20;;;;;;;19.75;7.63;;;;;;;;;;5039646;28;20040;-66
2021/01/10 02:36:58;;;;;;;15.68;8.98;;;;;;;;;;5053013;28;20474;-66
2021/01/10 02:39:27;;;;;;;18.65;8.70;;;;;;;;;;5053281;28;20037;-66
2021/01/10 02:41:54;;;;;;;19.77;9.27;;;;;;;;;;5054074;28;20048;-66
2021/01/10 02:44:21;;;;;;;15.52;8.95;;;;;;;;;;5049842;28;20060;-65
2021/01/10 02:46:51;;;;;;;30.55;13.13;;;;;;;;;;5032631;28;20498;-66
2021/01/10 02:49:18;;;;;;;28.60;11.80;;;;;;;;;;5034516;28;20048;-66
2021/01/10 02:51:44;;;;;;;35.95;13.27;;;;;;;;;;5033702;28;20059;-66
2021/01/10 02:54:12;;;;;;;27.75;10.45;;;;;;;;;;5033549;28;20041;-66
2021/01/10 02:56:38;;;;;;;19.75;10.25;;;;;;;;;;5052978;28;20119;-66
2021/01/10 02:59:04;;;;;;;22.30;9.68;;;;;;;;;;5053388;28;20037;-65
2021/01/10 03:01:30;;;;;;;21.17;9.95;;;;;;;;;;5051327;28;20037;-65
2021/01/10 03:03:57;;;;;;;21.08;9.10;;;;;;;;;;5052480;28;20135;-66
2021/01/10 03:06:23;;;;;;;22.45;10.57;;;;;;;;;;5036092;28;20069;-65
2021/01/10 03:08:49;;;;;;;24.40;9.48;;;;;;;;;;5014701;28;20540;-65
2021/01/10 03:11:15;;;;;;;24.50;9.02;;;;;;;;;;5031346;28;20049;-65
2021/01/10 03:13:41;;;;;;;27.33;9.95;;;;;;;;;;5031274;28;20041;-66
2021/01/10 03:16:08;;;;;;;20.13;8.65;;;;;;;;;;5041236;28;20334;-66
2021/01/10 03:18:34;;;;;;;17.45;7.60;;;;;;;;;;5047027;28;20087;-65
2021/01/10 03:21:00;;;;;;;23.85;8.40;;;;;;;;;;5032810;28;20041;-65
2021/01/10 03:23:26;;;;;;;18.05;8.02;;;;;;;;;;5031870;28;20065;-65
2021/01/10 03:25:52;;;;;;;24.38;9.73;;;;;;;;;;5036270;28;20044;-65
2021/01/10 03:28:18;;;;;;;20.58;9.20;;;;;;;;;;5051560;28;20045;-65
2021/01/10 03:30:44;;;;;;;18.35;8.02;;;;;;;;;;5051660;28;20044;-65
2021/01/10 03:33:10;;;;;;;16.95;7.90;;;;;;;;;;5051375;28;20041;-66
2021/01/10 03:35:37;;;;;;;22.73;9.13;;;;;;;;;;5051928;28;20041;-66
2021/01/10 03:38:04;;;;;;;19.15;9.02;;;;;;;;;;5051123;28;20106;-66
2021/01/10 03:40:30;;;;;;;19.30;8.60;;;;;;;;;;5051739;28;20041;-65
2021/01/10 03:42:56;;;;;;;25.67;8.88;;;;;;;;;;5051400;28;20041;-65
2021/01/10 03:45:22;;;;;;;14.90;7.65;;;;;;;;;;5035696;28;20052;-66
2021/01/10 03:47:48;;;;;;;22.55;8.38;;;;;;;;;;5031447;28;20518;-66
2021/01/10 03:50:14;;;;;;;19.23;8.80;;;;;;;;;;5031668;28;20495;-66
2021/01/10 03:52:40;;;;;;;24.63;8.50;;;;;;;;;;5031565;28;20469;-66
2021/01/10 03:55:07;;;;;;;26.17;9.18;;;;;;;;;;5034895;28;20395;-67
2021/01/10 03:57:33;;;;;;;27.98;10.48;;;;;;;;;;5046086;28;20044;-67
2021/01/10 03:59:59;;;;;;;24.13;9.73;;;;;;;;;;5032968;28;20041;-67
2021/01/10 04:02:25;;;;;;;23.90;9.35;;;;;;;;;;5031387;28;20045;-67
2021/01/10 04:04:51;;;;;;;29.83;10.15;;;;;;;;;;5031572;28;20029;-67
2021/01/10 04:07:17;;;;;;;21.58;10.70;;;;;;;;;;5030803;28;20080;-67
2021/01/10 04:09:43;;;;;;;18.35;10.75;;;;;;;;;;5031586;28;20040;-67
2021/01/10 04:12:09;;;;;;;25.65;10.27;;;;;;;;;;5031446;28;20507;-67
2021/01/10 04:14:35;;;;;;;22.30;11.90;;;;;;;;;;5031918;28;20047;-67
2021/01/10 04:17:01;;;;;;;32.40;11.90;;;;;;;;;;5051095;28;20399;-67
2021/01/10 04:19:27;;;;;;;21.27;12.10;;;;;;;;;;5051389;28;20044;-67
2021/01/10 04:21:53;;;;;;;18.15;11.25;;;;;;;;;;5051121;28;20062;-67
2021/01/10 04:24:19;;;;;;;23.48;10.88;;;;;;;;;;5051182;28;20123;-67
2021/01/10 04:26:47;;;;;;;31.63;12.05;;;;;;;;;;5034952;28;20038;-67
2021/01/10 04:29:13;;;;;;;25.98;11.07;;;;;;;;;;5033054;28;20091;-67
2021/01/10 04:31:40;;;;;;;24.25;11.23;;;;;;;;;;5034895;28;20047;-67
2021/01/10 04:34:06;;;;;;;26.80;9.68;;;;;;;;;;5034912;28;20125;-67
2021/01/10 04:36:32;;;;;;;22.70;9.60;;;;;;;;;;5045377;28;20037;-67
2021/01/10 04:38:58;;;;;;;26.20;11.27;;;;;;;;;;5054698;28;20454;-66
2021/01/10 04:41:25;;;;;;;26.15;10.00;;;;;;;;;;5054438;28;20037;-66
2021/01/10 04:43:54;;;;;;;15.25;8.82;;;;;;;;;;5053408;28;20582;-66
2021/01/10 04:46:20;;;;;;;16.17;7.90;;;;;;;;;;5047453;28;20072;-66
2021/01/10 04:48:46;;;;;;;15.32;7.03;;;;;;;;;;5034690;28;20045;-66
2021/01/10 04:51:14;;;;;;;17.65;8.70;;;;;;;;;;5034463;28;20049;-66
2021/01/10 04:53:40;;;;;;;24.20;8.73;;;;;;;;;;5034564;28;20049;-66
2021/01/10 04:56:06;;;;;;;18.90;9.52;;;;;;;;;;5035562;28;20041;-66
2021/01/10 04:58:32;;;;;;;16.23;8.02;;;;;;;;;;5053395;28;20067;-66
2021/01/10 05:00:58;;;;;;;21.20;9.00;;;;;;;;;;5053111;28;20410;-66
2021/01/10 05:03:24;;;;;;;25.02;9.55;;;;;;;;;;5053162;28;20053;-66
2021/01/10 05:05:51;;;;;;;25.60;10.88;;;;;;;;;;5054193;28;20037;-66
2021/01/10 05:08:17;;;;;;;29.40;13.05;;;;;;;;;;5036748;28;20048;-66
2021/01/10 05:10:43;;;;;;;33.08;12.70;;;;;;;;;;5016499;28;20045;-66
2021/01/10 05:13:09;;;;;;;24.58;11.35;;;;;;;;;;5034023;28;20075;-66
2021/01/10 05:15:35;;;;;;;16.95;9.90;;;;;;;;;;5034193;28;20563;-66
2021/01/10 05:18:01;;;;;;;23.50;11.68;;;;;;;;;;5044453;28;20090;-66
2021/01/10 05:20:28;;;;;;;18.65;9.10;;;;;;;;;;5053967;28;20048;-66
2021/01/10 05:22:54;;;;;;;20.63;9.93;;;;;;;;;;5052321;28;20045;-66
2021/01/10 05:25:20;;;;;;;24.48;10.38;;;;;;;;;;5054319;28;20048;-66
2021/01/10 05:27:49;;;;;;;26.23;10.68;;;;;;;;;;5046415;28;20041;-66
2021/01/10 05:30:16;;;;;;;18.08;10.73;;;;;;;;;;5033837;28;20044;-66
2021/01/10 05:32:42;;;;;;;25.15;10.38;;;;;;;;;;5033602;28;20073;-66
2021/01/10 05:35:08;;;;;;;21.67;11.40;;;;;;;;;;5033679;28;20480;-66
2021/01/10 05:37:37;;;;;;;29.85;11.00;;;;;;;;;;5035507;28;20098;-66
2021/01/10 05:40:05;;;;;;;20.45;12.38;;;;;;;;;;5053571;28;20466;-66
2021/01/10 05:42:31;;;;;;;22.20;11.90;;;;;;;;;;5052157;28;20121;-66
2021/01/10 05:44:57;;;;;;;24.67;12.23;;;;;;;;;;5052169;28;20037;-66
2021/01/10 05:47:23;;;;;;;27.95;13.60;;;;;;;;;;5053208;28;20044;-66
2021/01/10 05:49:52;;;;;;;23.75;12.82;;;;;;;;;;5035503;28;20033;-66
2021/01/10 05:52:19;;;;;;;33.00;15.85;;;;;;;;;;5033117;28;20042;-65
2021/01/10 05:54:45;;;;;;;37.88;15.05;;;;;;;;;;5033288;28;20033;-66
2021/01/10 05:57:12;;;;;;;31.70;14.25;;;;;;;;;;5033002;28;20037;-66
2021/01/10 05:59:48;;;;;;;29.55;13.38;;;;;;;;;;5033499;28;20042;-66
2021/01/10 06:02:14;;;;;;;28.42;14.02;;;;;;;;;;5050770;28;20131;-67
2021/01/10 06:04:40;;;;;;;22.20;12.00;;;;;;;;;;5053293;28;20044;-66
2021/01/10 06:07:06;;;;;;;26.90;13.05;;;;;;;;;;5053046;28;20037;-67
2021/01/10 06:09:45;;;;;;;22.65;11.98;;;;;;;;;;5043844;28;20092;-67
2021/01/10 06:12:21;;;;;;;29.10;14.40;;;;;;;;;;5033451;28;20042;-67
2021/01/10 06:14:47;;;;;;;21.63;11.93;;;;;;;;;;5033140;28;20049;-67
2021/01/10 06:17:13;;;;;;;22.80;13.20;;;;;;;;;;5032581;28;20162;-66
2021/01/10 06:19:39;;;;;;;26.38;12.20;;;;;;;;;;5022824;28;20041;-67
2021/01/10 06:22:05;;;;;;;20.65;11.40;;;;;;;;;;5051739;28;20044;-67
2021/01/10 06:24:35;;;;;;;21.58;12.32;;;;;;;;;;5053268;28;20195;-67
2021/01/10 06:27:07;;;;;;;25.23;12.35;;;;;;;;;;5053021;28;20041;-67
2021/01/10 06:29:36;;;;;;;29.00;11.35;;;;;;;;;;5049266;28;20037;-67
2021/01/10 06:32:02;;;;;;;21.42;12.27;;;;;;;;;;5015259;28;20037;-67
2021/01/10 06:34:28;;;;;;;21.38;12.50;;;;;;;;;;5032841;28;20083;-67
2021/01/10 06:36:54;;;;;;;28.23;15.50;;;;;;;;;;5015158;28;20052;-67
2021/01/10 06:39:21;;;;;;;29.58;13.23;;;;;;;;;;5015394;28;20045;-67
2021/01/10 06:41:47;;;;;;;22.77;12.43;;;;;;;;;;5033556;28;20037;-67
2021/01/10 06:44:13;;;;;;;26.50;12.60;;;;;;;;;;5052623;28;20048;-66
2021/01/10 06:46:39;;;;;;;19.90;11.85;;;;;;;;;;5051308;28;20045;-66
2021/01/10 06:49:05;;;;;;;24.90;11.60;;;;;;;;;;5051069;28;20096;-67
2021/01/10 06:51:32;;;;;;;22.65;11.15;;;;;;;;;;5037355;28;20058;-66
2021/01/10 06:53:58;;;;;;;23.27;11.88;;;;;;;;;;5014767;28;20443;-66
2021/01/10 06:56:24;;;;;;;20.65;12.40;;;;;;;;;;5014816;28;20389;-66
2021/01/10 06:59:09;;;;;;;29.95;14.35;;;;;;;;;;5032259;28;20480;-66
2021/01/10 07:01:56;;;;;;;26.25;12.85;;;;;;;;;;5034426;28;20052;-66
2021/01/10 07:04:31;;;;;;;17.77;11.25;;;;;;;;;;5032384;28;20400;-66
2021/01/10 07:06:57;;;;;;;22.70;11.82;;;;;;;;;;5032141;28;20037;-66
2021/01/10 07:09:23;;;;;;;24.05;13.32;;;;;;;;;;5021158;28;20037;-66
2021/01/10 07:11:50;;;;;;;21.30;13.38;;;;;;;;;;5051796;28;20067;-66
2021/01/10 07:14:16;;;;;;;23.88;14.15;;;;;;;;;;5050721;28;20045;-66
2021/01/10 07:16:51;;;;;;;24.98;14.77;;;;;;;;;;5049488;28;20418;-66
2021/01/10 07:19:18;;;;;;;25.45;15.73;;;;;;;;;;5047155;28;20116;-66
2021/01/10 07:21:45;;;;;;;29.05;19.05;;;;;;;;;;5014363;28;20103;-66
2021/01/10 07:24:15;;;;;;;33.03;18.88;;;;;;;;;;5030982;28;20041;-66
2021/01/10 07:26:48;;;;;;;31.63;17.92;;;;;;;;;;5031661;28;20503;-66
2021/01/10 07:29:26;;;;;;;31.42;18.73;;;;;;;;;;5031889;28;20546;-66
2021/01/10 07:32:07;;;;;;;28.52;18.65;;;;;;;;;;5031874;28;20103;-66
2021/01/10 07:34:45;;;;;;;40.80;22.08;;;;;;;;;;5031790;28;20217;-66
2021/01/10 07:37:27;;;;;;;34.17;21.48;;;;;;;;;;5031679;28;20037;-66
2021/01/10 07:39:54;;;;;;;41.42;21.92;;;;;;;;;;5036814;28;20040;-66
2021/01/10 07:42:25;;;;;;;37.25;23.90;;;;;;;;;;5039483;28;20077;-66
2021/01/10 07:44:52;;;;;;;40.65;23.80;;;;;;;;;;5040403;28;20036;-67
2021/01/10 07:47:19;;;;;;;39.00;24.30;;;;;;;;;;5023671;28;20045;-67
2021/01/10 07:49:52;;;;;;;33.33;22.80;;;;;;;;;;5037843;28;20111;-67
2021/01/10 07:52:19;;;;;;;33.75;23.02;;;;;;;;;;5040534;28;20037;-67
2021/01/10 07:54:49;;;;;;;32.78;22.52;;;;;;;;;;5041064;28;20116;-67
2021/01/10 07:57:24;;;;;;;35.38;25.25;;;;;;;;;;5041958;28;20070;-67
2021/01/10 08:00:06;;;;;;;32.38;23.85;;;;;;;;;;5024017;28;20048;-68
2021/01/10 08:02:45;;;;;;;35.80;24.63;;;;;;;;;;5043069;28;20041;-67
2021/01/10 08:05:14;;;;;;;39.63;25.38;;;;;;;;;;5045551;28;20040;-67
2021/01/10 08:07:47;;;;;;;39.90;24.88;;;;;;;;;;5044105;28;20037;-67
2021/01/10 08:10:14;;;;;;;;;;;;;;;;;;5043129;28;20041;-67
2021/01/10 08:12:40;;;;;;;32.30;24.92;;;;;;;;;;5043637;28;19923;-67
2021/01/10 08:15:07;;;;;;;42.03;25.90;;;;;;;;;;5044175;28;20091;-67
2021/01/10 08:17:34;;;;;;;43.60;27.50;;;;;;;;;;5043255;28;20041;-67
2021/01/10 08:20:00;;;;;;;34.58;24.60;;;;;;;;;;5044956;28;20086;-67
2021/01/10 08:22:26;;;;;;;42.95;26.40;;;;;;;;;;5044467;28;20072;-67
2021/01/10 08:24:53;;;;;;;36.03;23.83;;;;;;;;;;5042186;28;20498;-67
2021/01/10 08:27:19;;;;;;;36.42;25.38;;;;;;;;;;5043613;28;20506;-67
2021/01/10 08:29:46;;;;;;;38.03;24.60;;;;;;;;;;5036298;28;20160;-67
2021/01/10 08:32:12;;;;;;;46.50;28.98;;;;;;;;;;5035722;28;20047;-67
2021/01/10 08:34:48;;;;;;;42.17;27.42;;;;;;;;;;5041222;28;20045;-67
2021/01/10 08:37:15;;;;;;;35.08;25.15;;;;;;;;;;5034083;28;20209;-67
2021/01/10 08:39:41;;;;;;;40.90;27.45;;;;;;;;;;5034048;28;20514;-67
2021/01/10 08:42:07;;;;;;;39.17;24.75;;;;;;;;;;5037964;28;20403;-67
2021/01/10 08:44:33;;;;;;;39.25;23.58;;;;;;;;;;5034696;28;20120;-67
2021/01/10 08:46:59;;;;;;;34.95;23.77;;;;;;;;;;5034536;28;20049;-67
2021/01/10 08:49:26;;;;;;;35.90;23.35;;;;;;;;;;5017181;28;20037;-67
2021/01/10 08:51:53;;;;;;;33.03;23.50;;;;;;;;;;5045440;28;20494;-67
2021/01/10 08:54:19;;;;;;;35.22;22.13;;;;;;;;;;5054412;28;20037;-66
2021/01/10 08:56:46;;;;;;;38.00;24.05;;;;;;;;;;5054256;28;20043;-66
2021/01/10 08:59:12;;;;;;;36.35;23.92;;;;;;;;;;5054386;28;20033;-66
2021/01/10 09:01:38;;;;;;;34.67;23.80;;;;;;;;;;5047447;28;20116;-66
2021/01/10 09:04:11;;;;;;;34.28;24.02;;;;;;;;;;5034304;28;20041;-66
2021/01/10 09:06:56;;;;;;;34.42;22.38;;;;;;;;;;5034156;28;20042;-66
2021/01/10 09:09:24;;;;;;;39.33;24.58;;;;;;;;;;5034384;28;20044;-65
2021/01/10 09:12:05;;;;;;;32.08;22.77;;;;;;;;;;5039388;28;20095;-67
2021/01/10 09:14:57;;;;;;;31.92;22.60;;;;;;;;;;5053688;28;20037;-67
2021/01/10 09:17:30;;;;;;;37.40;22.73;;;;;;;;;;5051163;28;20102;-68
2021/01/10 09:19:59;;;;;;;32.70;22.25;;;;;;;;;;5053072;28;20051;-68
2021/01/10 09:22:32;;;;;;;32.03;21.13;;;;;;;;;;5046542;28;20446;-68
2021/01/10 09:24:58;;;;;;;27.63;18.40;;;;;;;;;;5033943;28;20493;-68
2021/01/10 09:27:24;;;;;;;29.90;19.90;;;;;;;;;;5033863;28;20049;-68
2021/01/10 09:29:50;;;;;;;25.65;20.13;;;;;;;;;;5033938;28;20041;-68
2021/01/10 09:32:22;;;;;;;28.35;20.33;;;;;;;;;;5036830;28;20103;-66
2021/01/10 09:34:55;;;;;;;35.60;20.08;;;;;;;;;;5053698;28;20041;-66
2021/01/10 09:37:25;;;;;;;28.48;18.70;;;;;;;;;;5052384;28;20091;-66
2021/01/10 09:39:51;;;;;;;30.45;17.50;;;;;;;;;;5052496;28;20045;-66
2021/01/10 09:42:19;;;;;;;25.02;17.95;;;;;;;;;;5052656;28;20116;-66
2021/01/10 09:44:54;;;;;;;29.70;16.48;;;;;;;;;;5016137;28;20045;-66
2021/01/10 09:47:37;;;;;;;22.52;16.77;;;;;;;;;;5033651;28;20108;-66
2021/01/10 09:50:29;;;;;;;26.75;16.88;;;;;;;;;;5048593;28;20167;-66
2021/01/10 09:52:55;;;;;;;26.40;16.70;;;;;;;;;;5039534;28;20050;-67
2021/01/10 09:55:25;;;;;;;23.08;16.52;;;;;;;;;;5036548;28;20036;-66
2021/01/10 09:57:51;;;;;;;23.15;15.40;;;;;;;;;;5044188;28;20041;-66
2021/01/10 10:00:17;;;;;;;20.02;14.65;;;;;;;;;;5035987;28;20122;-66
2021/01/10 10:02:47;;;;;;;24.58;14.57;;;;;;;;;;5049216;28;20041;-65
2021/01/10 10:05:14;;;;;;;23.85;14.00;;;;;;;;;;5041444;28;20475;-65
2021/01/10 10:07:41;;;;;;;23.55;14.25;;;;;;;;;;5025166;28;84979;-65
2021/01/10 10:10:30;;;;;;;18.48;13.48;;;;;;;;;;5018844;28;20037;-65
2021/01/10 10:13:02;;;;;;;19.60;12.77;;;;;;;;;;5018858;28;20518;-65
2021/01/10 10:15:54;;;;;;;20.10;14.05;;;;;;;;;;5023935;28;20037;-65
2021/01/10 10:18:31;;;;;;;16.13;11.43;;;;;;;;;;5022408;28;20033;-66
2021/01/10 10:20:57;;;;;;;17.00;11.68;;;;;;;;;;5026394;28;20045;-65
2021/01/10 10:23:23;;;;;;;25.98;12.88;;;;;;;;;;5025451;28;20496;-66
2021/01/10 10:25:49;;;;;;;16.38;10.90;;;;;;;;;;5032004;28;20096;-68
2021/01/10 10:28:16;;;;;;;14.80;9.95;;;;;;;;;;5030433;28;20119;-66
2021/01/10 10:30:46;;;;;;;17.50;10.27;;;;;;;;;;5030736;28;20041;-68
2021/01/10 10:33:12;;;;;;;14.90;10.32;;;;;;;;;;5029604;28;20041;-67
2021/01/10 10:35:38;;;;;;;13.27;9.75;;;;;;;;;;5030916;28;20107;-68
2021/01/10 10:38:04;;;;;;;16.27;10.20;;;;;;;;;;5029427;28;20045;-67
2021/01/10 10:40:30;;;;;;;22.00;10.88;;;;;;;;;;5030247;28;20076;-66
2021/01/10 10:42:56;;;;;;;16.60;11.07;;;;;;;;;;5013295;28;20132;-67
2021/01/10 10:45:22;;;;;;;16.00;10.43;;;;;;;;;;5012958;28;20183;-67
2021/01/10 10:47:49;;;;;;;16.42;10.68;;;;;;;;;;5012571;28;20451;-67
2021/01/10 10:50:15;;;;;;;16.98;10.23;;;;;;;;;;5012738;28;20408;-66
2021/01/10 10:52:42;;;;;;;16.48;11.13;;;;;;;;;;5025300;28;20179;-66
2021/01/10 10:55:08;;;;;;;20.55;12.50;;;;;;;;;;5032338;28;20069;-67
2021/01/10 10:57:35;;;;;;;13.98;9.95;;;;;;;;;;5032044;28;20504;-66
2021/01/10 11:00:02;;;;;;;16.58;10.70;;;;;;;;;;5032297;28;20072;-66
2021/01/10 11:02:28;;;;;;;16.42;11.18;;;;;;;;;;5023567;28;20144;-66
2021/01/10 11:04:54;;;;;;;16.98;10.30;;;;;;;;;;5012427;28;20038;-66
2021/01/10 11:07:20;;;;;;;21.17;10.27;;;;;;;;;;5012351;28;20038;-66
2021/01/10 11:09:46;;;;;;;13.70;9.68;;;;;;;;;;5012432;28;20117;-66
2021/01/10 11:12:13;;;;;;;16.52;11.60;;;;;;;;;;5015419;28;20491;-66
2021/01/10 11:14:39;;;;;;;16.67;10.55;;;;;;;;;;5032011;28;20091;-67
2021/01/10 11:17:06;;;;;;;15.63;10.63;;;;;;;;;;5029098;28;20473;-66
2021/01/10 11:19:32;;;;;;;13.82;9.90;;;;;;;;;;5012367;28;20095;-67
2021/01/10 11:22:00;;;;;;;18.17;11.25;;;;;;;;;;5012206;28;20077;-68
2021/01/10 11:24:26;;;;;;;18.80;10.98;;;;;;;;;;5012049;28;20034;-67
2021/01/10 11:26:52;;;;;;;20.50;10.40;;;;;;;;;;5012421;28;20100;-67
2021/01/10 11:29:18;;;;;;;15.85;10.18;;;;;;;;;;5028645;28;20041;-68
2021/01/10 11:31:44;;;;;;;14.27;10.05;;;;;;;;;;5031938;28;20045;-67
2021/01/10 11:34:11;;;;;;;15.20;10.27;;;;;;;;;;5031925;28;20041;-68
2021/01/10 11:36:41;;;;;;;15.52;10.38;;;;;;;;;;5032022;28;20095;-67
2021/01/10 11:39:07;;;;;;;14.80;10.82;;;;;;;;;;5023513;28;20048;-66
2021/01/10 11:41:33;;;;;;;15.10;10.80;;;;;;;;;;5016163;28;20050;-67
2021/01/10 11:43:59;;;;;;;16.17;10.32;;;;;;;;;;5016015;28;20091;-67
2021/01/10 11:46:25;;;;;;;13.23;10.13;;;;;;;;;;5016043;28;20042;-67
2021/01/10 11:48:51;;;;;;;13.68;10.90;;;;;;;;;;5022721;28;20516;-66
2021/01/10 11:51:18;;;;;;;17.30;11.63;;;;;;;;;;5035650;28;20041;-66
2021/01/10 11:53:44;;;;;;;13.98;10.90;;;;;;;;;;5035581;28;20052;-67
2021/01/10 11:56:10;;;;;;;17.60;11.45;;;;;;;;;;5031237;28;20038;-66
2021/01/10 11:58:40;;;;;;;16.77;10.75;;;;;;;;;;5031169;28;20093;-66
2021/01/10 12:01:06;;;;;;;18.35;10.18;;;;;;;;;;5033813;28;20758;-66
2021/01/10 12:03:32;;;;;;;18.65;12.05;;;;;;;;;;5033298;28;20044;-67
2021/01/10 12:05:58;;;;;;;17.60;11.32;;;;;;;;;;5034369;28;20045;-66
2021/01/10 12:08:24;;;;;;;14.95;11.45;;;;;;;;;;5020817;28;20042;-66
2021/01/10 12:10:50;;;;;;;15.93;11.73;;;;;;;;;;5014942;28;20034;-66
2021/01/10 12:13:17;;;;;;;17.45;11.02;;;;;;;;;;4997586;28;20057;-66
2021/01/10 12:15:44;;;;;;;18.88;13.65;;;;;;;;;;5024557;28;20046;-66
2021/01/10 12:18:10;;;;;;;14.82;11.77;;;;;;;;;;5029071;28;20113;-66
2021/01/10 12:20:36;;;;;;;15.43;12.38;;;;;;;;;;5021130;28;20063;-66
2021/01/10 12:23:03;;;;;;;18.85;12.55;;;;;;;;;;5019994;28;20396;-66
2021/01/10 12:25:29;;;;;;;15.80;11.32;;;;;;;;;;5024387;28;20048;-66
2021/01/10 12:27:55;;;;;;;16.20;12.10;;;;;;;;;;5029180;28;20045;-66
2021/01/10 12:30:22;;;;;;;18.98;12.25;;;;;;;;;;5019647;28;20042;-66
2021/01/10 12:32:48;;;;;;;14.90;12.20;;;;;;;;;;5013634;28;20408;-66
2021/01/10 12:35:18;;;;;;;15.95;12.73;;;;;;;;;;5011515;28;20046;-66
2021/01/10 12:37:45;;;;;;;15.52;12.10;;;;;;;;;;5013439;28;20113;-66
2021/01/10 12:40:11;;;;;;;16.30;12.30;;;;;;;;;;5014510;28;20554;-66
2021/01/10 12:42:37;;;;;;;18.83;12.35;;;;;;;;;;5012148;28;20560;-66
2021/01/10 12:45:04;;;;;;;16.42;11.63;;;;;;;;;;5013826;28;20133;-65
2021/01/10 12:47:30;;;;;;;19.05;12.13;;;;;;;;;;5013531;28;20124;-66
2021/01/10 12:49:57;;;;;;;16.23;12.32;;;;;;;;;;5012325;28;20535;-66
2021/01/10 12:52:23;;;;;;;15.40;11.18;;;;;;;;;;5013346;28;20066;-66
2021/01/10 12:54:49;;;;;;;20.02;12.77;;;;;;;;;;5013579;28;20111;-67
2021/01/10 12:57:15;;;;;;;15.43;10.98;;;;;;;;;;5018854;28;20030;-65
2021/01/10 12:59:41;;;;;;;12.15;10.68;;;;;;;;;;5023822;28;20061;-66
2021/01/10 13:02:09;;;;;;;16.02;11.45;;;;;;;;;;5012522;28;20050;-67
2021/01/10 13:04:41;;;;;;;12.70;10.18;;;;;;;;;;5015764;28;20054;-65
2021/01/10 13:07:07;;;;;;;17.35;11.32;;;;;;;;;;5021618;28;20509;-65
2021/01/10 13:09:36;;;;;;;18.17;11.50;;;;;;;;;;5022104;28;20463;-65
2021/01/10 13:12:03;;;;;;;14.55;10.82;;;;;;;;;;5019543;28;20037;-65
2021/01/10 13:14:29;;;;;;;13.48;10.70;;;;;;;;;;5016880;28;20424;-65
2021/01/10 13:16:55;;;;;;;18.15;10.73;;;;;;;;;;5010805;28;20395;-65
2021/01/10 13:19:21;;;;;;;18.50;11.02;;;;;;;;;;5011027;28;20038;-66
2021/01/10 13:21:48;;;;;;;16.90;11.93;;;;;;;;;;5010759;28;20452;-66
2021/01/10 13:24:14;;;;;;;14.73;11.10;;;;;;;;;;5010329;28;20045;-66
2021/01/10 13:26:40;;;;;;;15.00;10.57;;;;;;;;;;5014561;28;20067;-66
2021/01/10 13:29:06;;;;;;;15.98;10.65;;;;;;;;;;5029401;28;20037;-66
2021/01/10 13:31:35;;;;;;;21.75;12.77;;;;;;;;;;5011868;28;20092;-66
2021/01/10 13:34:01;;;;;;;16.02;12.20;;;;;;;;;;5012093;28;20065;-66
2021/01/10 13:36:28;;;;;;;24.48;14.95;;;;;;;;;;5012950;28;20066;-66
2021/01/10 13:38:54;;;;;;;21.90;15.55;;;;;;;;;;5013739;28;20054;-65
2021/01/10 13:41:20;;;;;;;21.05;15.90;;;;;;;;;;5012843;28;20472;-65
2021/01/10 13:43:46;;;;;;;27.10;15.18;;;;;;;;;;5012832;28;20054;-65
2021/01/10 13:46:13;;;;;;;21.08;15.35;;;;;;;;;;5012047;28;20140;-67
2021/01/10 13:48:39;;;;;;;21.15;14.85;;;;;;;;;;5026884;28;20041;-66
2021/01/10 13:51:08;;;;;;;27.13;15.23;;;;;;;;;;5011915;28;20150;-66
2021/01/10 13:53:35;;;;;;;19.50;14.93;;;;;;;;;;5013330;28;20124;-66
2021/01/10 13:56:02;;;;;;;17.90;15.52;;;;;;;;;;5012731;28;20037;-66
2021/01/10 13:58:30;;;;;;;19.35;16.05;;;;;;;;;;5015605;28;20056;-66
2021/01/10 14:00:56;;;;;;;21.73;15.90;;;;;;;;;;5012872;28;20046;-66
2021/01/10 14:03:22;;;;;;;25.02;15.82;;;;;;;;;;5012157;28;20393;-65
2021/01/10 14:05:48;;;;;;;20.40;15.00;;;;;;;;;;5012200;28;20117;-65
2021/01/10 14:08:14;;;;;;;19.80;14.48;;;;;;;;;;5017157;28;20530;-66
2021/01/10 14:10:40;;;;;;;20.40;13.88;;;;;;;;;;5032127;28;20046;-66
2021/01/10 14:13:06;;;;;;;19.55;15.23;;;;;;;;;;5030871;28;20106;-66
2021/01/10 14:15:32;;;;;;;21.42;14.73;;;;;;;;;;5028526;28;20045;-66
2021/01/10 14:17:58;;;;;;;26.38;14.48;;;;;;;;;;5031393;28;20037;-65
2021/01/10 14:20:24;;;;;;;16.52;13.88;;;;;;;;;;5032031;28;20037;-65
2021/01/10 14:22:50;;;;;;;26.80;15.38;;;;;;;;;;5031410;28;20037;-65